createdAt,value
2018-06-05T00:01:06.260Z,99.90
2018-06-05T00:03:34.780Z,99.90
2018-06-05T00:06:03.198Z,99.90
2018-06-05T00:08:31.667Z,99.90
2018-06-05T00:11:00.729Z,99.90
2018-06-05T00:13:29.105Z,99.90
2018-06-05T00:15:57.450Z,99.90
2018-06-05T00:18:25.843Z,99.90
2018-06-05T00:20:54.269Z,99.90
2018-06-05T00:23:22.624Z,99.90
2018-06-05T00:25:50.998Z,99.90
2018-06-05T00:28:19.352Z,99.90
2018-06-05T00:30:47.741Z,99.90
2018-06-05T00:33:16.159Z,99.90
2018-06-05T00:35:44.555Z,99.90
2018-06-05T00:38:15.530Z,99.90
2018-06-05T00:40:43.916Z,99.90
2018-06-05T00:43:12.338Z,99.90
2018-06-05T00:45:49.393Z,99.90
2018-06-05T00:48:18.029Z,99.90
2018-06-05T00:50:46.395Z,99.90
2018-06-05T00:53:14.788Z,99.90
2018-06-05T00:55:43.143Z,99.90
2018-06-05T00:58:12.179Z,99.90
2018-06-05T01:00:40.539Z,99.90
2018-06-05T01:03:08.884Z,99.90
2018-06-05T01:05:37.266Z,99.90
2018-06-05T01:08:05.688Z,99.90
2018-06-05T01:10:34.141Z,99.90
2018-06-05T01:13:02.623Z,99.90
2018-06-05T01:15:31.023Z,99.90
2018-06-05T01:17:59.540Z,99.90
2018-06-05T01:20:27.917Z,99.90
2018-06-05T01:22:56.316Z,99.90
2018-06-05T01:25:24.679Z,99.90
2018-06-05T01:27:53.014Z,99.90
2018-06-05T01:30:21.426Z,99.90
2018-06-05T01:32:49.765Z,99.90
2018-06-05T01:35:18.128Z,99.90
2018-06-05T01:37:46.534Z,99.90
2018-06-05T01:40:14.905Z,99.90
2018-06-05T01:42:44.071Z,99.90
2018-06-05T01:45:12.453Z,99.90
2018-06-05T01:47:40.841Z,99.90
2018-06-05T01:50:09.172Z,99.90
2018-06-05T01:52:37.586Z,99.90
2018-06-05T01:55:05.965Z,99.90
2018-06-05T01:57:34.338Z,99.90
2018-06-05T02:00:02.763Z,99.90
2018-06-05T02:02:31.140Z,99.90
2018-06-05T02:04:59.550Z,99.90
2018-06-05T02:07:27.896Z,99.90
2018-06-05T02:09:56.311Z,99.90
2018-06-05T02:12:24.669Z,99.90
2018-06-05T02:14:53.045Z,99.90
2018-06-05T02:17:21.426Z,99.90
2018-06-05T02:19:49.809Z,99.90
2018-06-05T02:22:18.207Z,99.90
2018-06-05T02:24:46.545Z,99.90
2018-06-05T02:27:14.944Z,99.90
2018-06-05T02:29:43.910Z,99.90
2018-06-05T02:32:12.306Z,99.90
2018-06-05T02:34:40.643Z,99.90
2018-06-05T02:37:09.024Z,99.90
2018-06-05T02:39:37.372Z,99.90
2018-06-05T02:42:05.706Z,99.90
2018-06-05T02:44:34.125Z,99.90
2018-06-05T02:47:02.469Z,99.90
2018-06-05T02:49:30.830Z,99.90
2018-06-05T02:51:59.219Z,99.90
2018-06-05T02:54:27.612Z,99.90
2018-06-05T02:56:56.011Z,99.90
2018-06-05T02:59:24.358Z,99.90
2018-06-05T03:01:53.148Z,99.90
2018-06-05T03:04:21.535Z,99.90
2018-06-05T03:06:49.940Z,99.90
2018-06-05T03:09:18.300Z,99.90
2018-06-05T03:11:46.607Z,99.90
2018-06-05T03:14:14.977Z,99.90
2018-06-05T03:16:43.482Z,99.90
2018-06-05T03:19:11.861Z,99.90
2018-06-05T03:21:40.286Z,99.90
2018-06-05T03:24:08.653Z,99.90
2018-06-05T03:26:37.046Z,99.90
2018-06-05T03:29:05.377Z,99.90
2018-06-05T03:31:33.802Z,99.90
2018-06-05T03:34:02.186Z,99.90
2018-06-05T03:36:30.626Z,99.90
2018-06-05T03:38:59.064Z,99.90
2018-06-05T03:41:27.405Z,99.90
2018-06-05T03:43:55.737Z,99.90
2018-06-05T03:46:24.065Z,99.90
2018-06-05T03:48:52.400Z,99.90
2018-06-05T03:51:20.828Z,99.90
2018-06-05T03:53:49.234Z,99.90
2018-06-05T03:56:17.981Z,99.90
2018-06-05T03:58:46.361Z,99.90
2018-06-05T04:01:14.741Z,99.90
2018-06-05T04:03:43.879Z,99.90
2018-06-05T04:06:12.237Z,99.90
2018-06-05T04:08:40.584Z,99.90
2018-06-05T04:11:08.974Z,99.90
2018-06-05T04:13:37.315Z,99.90
2018-06-05T04:16:06.437Z,99.90
2018-06-05T04:18:34.821Z,99.90
2018-06-05T04:21:03.134Z,99.90
2018-06-05T04:23:32.166Z,99.90
2018-06-05T04:26:00.544Z,99.90
2018-06-05T04:28:28.945Z,99.90
2018-06-05T04:30:57.297Z,99.90
2018-06-05T04:33:26.116Z,99.90
2018-06-05T04:35:54.517Z,99.90
2018-06-05T04:38:22.842Z,99.90
2018-06-05T04:40:51.229Z,99.90
2018-06-05T04:43:19.573Z,99.90
2018-06-05T04:45:47.895Z,99.90
2018-06-05T04:48:16.285Z,99.90
2018-06-05T04:50:44.611Z,99.90
2018-06-05T04:53:13.163Z,99.90
2018-06-05T04:55:41.469Z,99.90
2018-06-05T04:58:09.810Z,99.90
2018-06-05T05:00:38.221Z,99.90
2018-06-05T05:03:06.634Z,99.90
2018-06-05T05:05:35.791Z,99.90
2018-06-05T05:08:04.184Z,99.90
2018-06-05T05:10:32.560Z,99.90
2018-06-05T05:13:00.937Z,99.90
2018-06-05T05:15:29.324Z,99.90
2018-06-05T05:17:57.726Z,99.90
2018-06-05T05:20:26.297Z,99.90
2018-06-05T05:22:54.684Z,99.90
2018-06-05T05:25:23.079Z,99.90
2018-06-05T05:27:51.455Z,99.90
2018-06-05T05:30:19.850Z,99.90
2018-06-05T05:32:48.235Z,99.90
2018-06-05T05:35:16.599Z,99.90
2018-06-05T05:37:45.053Z,99.90
2018-06-05T05:40:13.384Z,99.90
2018-06-05T05:42:41.745Z,99.90
2018-06-05T05:45:10.102Z,99.90
2018-06-05T05:47:38.428Z,99.90
2018-06-05T05:50:06.887Z,99.90
2018-06-05T05:52:35.261Z,99.90
2018-06-05T05:55:03.753Z,99.90
2018-06-05T05:57:32.203Z,99.90
2018-06-05T06:02:28.636Z,99.90
2018-06-05T06:04:56.987Z,99.90
2018-06-05T06:07:25.492Z,99.90
2018-06-05T06:09:53.923Z,99.90
2018-06-05T06:12:22.316Z,99.90
2018-06-05T06:14:50.741Z,99.90
2018-06-05T06:17:19.546Z,99.90
2018-06-05T06:19:47.980Z,99.90
2018-06-05T06:22:16.321Z,99.90
2018-06-05T06:24:44.852Z,99.90
2018-06-05T06:27:13.299Z,99.90
2018-06-05T06:29:41.659Z,99.90
2018-06-05T06:32:10.174Z,99.90
2018-06-05T06:34:38.576Z,99.90
2018-06-05T06:37:06.966Z,99.90
2018-06-05T06:39:35.414Z,99.90
2018-06-05T06:42:03.825Z,99.90
2018-06-05T06:44:32.258Z,99.90
2018-06-05T06:47:01.298Z,99.90
2018-06-05T06:49:29.662Z,99.90
2018-06-05T06:51:58.665Z,99.90
2018-06-05T06:54:27.064Z,99.90
2018-06-05T06:56:55.460Z,99.90
2018-06-05T06:59:23.895Z,99.90
2018-06-05T07:01:52.223Z,99.90
2018-06-05T07:04:20.735Z,99.90
2018-06-05T07:06:49.108Z,99.80
2018-06-05T07:09:17.512Z,99.10
2018-06-05T07:11:46.556Z,98.60
2018-06-05T07:14:14.961Z,98.30
2018-06-05T07:16:43.395Z,98.90
2018-06-05T07:19:11.852Z,97.90
2018-06-05T07:21:40.936Z,98.10
2018-06-05T07:24:09.354Z,98.10
2018-06-05T07:26:37.727Z,98.10
2018-06-05T07:31:34.508Z,96.40
2018-06-05T07:34:02.985Z,96.30
2018-06-05T07:36:31.701Z,96.70
2018-06-05T07:39:00.037Z,96.30
2018-06-05T07:41:28.394Z,96.80
2018-06-05T07:43:56.738Z,96.90
2018-06-05T07:46:25.169Z,96.40
2018-06-05T07:48:53.603Z,96.30
2018-06-05T07:51:22.006Z,96.60
2018-06-05T07:53:50.526Z,97.10
2018-06-05T07:56:19.681Z,97.10
2018-06-05T07:58:48.083Z,97.40
2018-06-05T08:01:16.533Z,96.50
2018-06-05T08:03:44.951Z,97.50
2018-06-05T08:06:13.565Z,96.80
2018-06-05T08:08:41.973Z,97.20
2018-06-05T08:11:11.077Z,96.80
2018-06-05T08:13:39.431Z,96.90
2018-06-05T08:16:07.858Z,96.10
2018-06-05T08:18:36.270Z,96.90
2018-06-05T08:21:04.647Z,95.80
2018-06-05T08:23:33.040Z,95.40
2018-06-05T08:26:01.397Z,95.30
2018-06-05T08:28:29.754Z,95.10
2018-06-05T08:30:58.176Z,95.60
2018-06-05T08:33:26.597Z,95.40
2018-06-05T08:35:55.051Z,96.10
2018-06-05T08:38:23.481Z,95.50
2018-06-05T08:40:51.817Z,94.80
2018-06-05T08:43:20.228Z,94.50
2018-06-05T08:45:48.618Z,94.80
2018-06-05T08:48:17.027Z,95.20
2018-06-05T08:50:45.544Z,94.90
2018-06-05T08:53:13.895Z,95.80
2018-06-05T08:55:42.297Z,96.00
2018-06-05T08:58:10.626Z,95.60
2018-06-05T09:00:39.089Z,96.80
2018-06-05T09:03:07.461Z,95.00
2018-06-05T09:05:35.845Z,95.90
2018-06-05T09:08:04.219Z,95.40
2018-06-05T09:10:32.605Z,95.40
2018-06-05T09:13:01.001Z,95.20
2018-06-05T09:15:30.315Z,94.60
2018-06-05T09:17:58.695Z,94.10
2018-06-05T09:20:27.090Z,94.70
2018-06-05T09:22:55.432Z,95.20
2018-06-05T09:25:23.863Z,95.30
2018-06-05T09:27:52.285Z,94.80
2018-06-05T09:30:20.971Z,94.40
2018-06-05T09:32:49.326Z,95.40
2018-06-05T09:35:17.670Z,95.00
2018-06-05T09:37:46.056Z,93.80
2018-06-05T09:40:15.400Z,93.70
2018-06-05T09:42:43.760Z,95.10
2018-06-05T09:45:12.131Z,95.10
2018-06-05T09:47:40.533Z,94.70
2018-06-05T09:50:08.964Z,94.30
2018-06-05T09:52:37.337Z,94.30
2018-06-05T09:55:05.778Z,94.00
2018-06-05T09:57:34.199Z,95.90
2018-06-05T10:00:03.462Z,95.30
2018-06-05T10:02:31.887Z,95.60
2018-06-05T10:05:03.947Z,94.90
2018-06-05T10:07:33.357Z,94.30
2018-06-05T10:10:01.723Z,94.10
2018-06-05T10:12:30.389Z,95.50
2018-06-05T10:14:58.983Z,93.90
2018-06-05T10:17:27.388Z,95.60
2018-06-05T10:19:55.768Z,95.80
2018-06-05T10:22:24.148Z,93.30
2018-06-05T10:24:52.489Z,94.30
2018-06-05T10:27:20.844Z,92.90
2018-06-05T10:29:49.256Z,94.20
2018-06-05T10:32:17.756Z,93.30
2018-06-05T10:34:46.211Z,94.00
2018-06-05T10:37:14.594Z,93.70
2018-06-05T10:39:43.028Z,95.10
2018-06-05T10:42:11.446Z,94.60
2018-06-05T10:44:42.015Z,93.90
2018-06-05T10:47:10.379Z,94.90
2018-06-05T10:49:38.691Z,94.20
2018-06-05T10:52:07.142Z,93.20
2018-06-05T10:54:35.571Z,95.40
2018-06-05T10:57:03.929Z,93.80
2018-06-05T10:59:32.389Z,95.00
2018-06-05T11:02:00.770Z,95.00
2018-06-05T11:04:29.745Z,94.40
2018-06-05T11:06:58.124Z,93.70
2018-06-05T11:09:26.616Z,93.40
2018-06-05T11:11:55.006Z,93.90
2018-06-05T11:14:23.360Z,94.90
2018-06-05T11:16:51.735Z,94.20
2018-06-05T11:19:20.122Z,93.70
2018-06-05T11:21:48.546Z,93.60
2018-06-05T11:24:16.876Z,93.40
2018-06-05T11:26:45.257Z,94.00
2018-06-05T11:29:13.648Z,93.00
2018-06-05T11:31:42.012Z,92.10
2018-06-05T11:34:10.395Z,92.30
2018-06-05T11:36:38.766Z,93.80
2018-06-05T11:39:08.409Z,91.80
2018-06-05T11:41:38.793Z,92.80
2018-06-05T11:44:07.137Z,91.70
2018-06-05T11:46:36.110Z,93.40
2018-06-05T11:49:04.489Z,92.00
2018-06-05T11:51:33.780Z,92.30
2018-06-05T11:54:03.053Z,91.80
2018-06-05T11:56:31.430Z,92.40
2018-06-05T11:59:00.098Z,91.20
2018-06-05T12:01:28.561Z,92.00
2018-06-05T12:03:57.573Z,92.40
2018-06-05T12:06:26.837Z,90.00
2018-06-05T12:08:57.562Z,90.80
2018-06-05T12:11:26.058Z,91.00
2018-06-05T12:13:54.492Z,91.00
2018-06-05T12:16:22.907Z,88.90
2018-06-05T12:21:20.470Z,87.90
2018-06-05T12:23:48.962Z,89.00
2018-06-05T12:26:17.355Z,88.90
2018-06-05T12:28:46.045Z,89.60
2018-06-05T12:31:15.701Z,85.90
2018-06-05T12:33:44.042Z,87.00
2018-06-05T12:36:12.551Z,81.70
2018-06-05T12:38:40.908Z,85.00
2018-06-05T12:41:09.608Z,86.10
2018-06-05T12:43:37.987Z,82.10
2018-06-05T12:46:06.384Z,81.10
2018-06-05T12:48:34.786Z,79.70
2018-06-05T12:51:04.023Z,81.40
2018-06-05T12:53:32.541Z,82.90
2018-06-05T12:56:00.965Z,85.00
2018-06-05T12:58:29.370Z,81.80
2018-06-05T13:00:57.757Z,81.80
2018-06-05T13:03:26.553Z,78.20
2018-06-05T13:08:23.184Z,81.60
2018-06-05T13:10:52.700Z,82.70
2018-06-05T13:13:21.173Z,84.30
2018-06-05T13:15:49.550Z,85.80
2018-06-05T13:18:17.970Z,80.90
2018-06-05T13:20:46.373Z,81.50
2018-06-05T13:23:14.762Z,78.50
2018-06-05T13:25:43.177Z,80.10
2018-06-05T13:28:12.267Z,76.80
2018-06-05T13:30:40.679Z,73.50
2018-06-05T13:33:09.792Z,77.50
2018-06-05T13:35:38.240Z,75.20
2018-06-05T13:38:06.771Z,71.30
2018-06-05T13:40:35.239Z,74.30
2018-06-05T13:43:04.668Z,71.90
2018-06-05T13:45:33.250Z,73.70
2018-06-05T13:48:01.614Z,77.00
2018-06-05T13:50:30.127Z,70.70
2018-06-05T13:52:58.632Z,72.40
2018-06-05T13:55:27.165Z,73.60
2018-06-05T13:57:55.674Z,73.70
2018-06-05T14:00:24.134Z,72.10
2018-06-05T14:02:52.593Z,69.20
2018-06-05T14:05:21.686Z,69.40
2018-06-05T14:07:50.905Z,72.50
2018-06-05T14:10:19.457Z,69.30
2018-06-05T14:12:47.943Z,71.00
2018-06-05T14:15:16.483Z,73.10
2018-06-05T14:17:44.990Z,76.20
2018-06-05T14:20:13.713Z,74.20
2018-06-05T14:22:42.208Z,75.00
2018-06-05T14:25:11.471Z,71.10
2018-06-05T14:27:40.449Z,73.50
2018-06-05T14:30:08.868Z,74.60
2018-06-05T14:32:37.267Z,72.30
2018-06-05T14:35:06.031Z,69.50
2018-06-05T14:37:34.487Z,69.30
2018-06-05T14:40:04.486Z,68.90
2018-06-05T14:42:32.978Z,65.70
2018-06-05T14:45:01.745Z,70.50
2018-06-05T14:47:30.893Z,69.50
2018-06-05T14:49:59.836Z,65.60
2018-06-05T14:52:33.064Z,65.10
2018-06-05T14:55:01.521Z,66.50
2018-06-05T14:57:30.023Z,65.90
2018-06-05T14:59:58.498Z,68.40
2018-06-05T15:02:26.993Z,65.70
2018-06-05T15:04:56.285Z,68.40
2018-06-05T15:07:25.260Z,69.90
2018-06-05T15:09:53.679Z,68.30
2018-06-05T15:12:23.848Z,65.10
2018-06-05T15:14:52.304Z,65.70
2018-06-05T15:17:20.994Z,64.70
2018-06-05T15:19:49.787Z,64.10
2018-06-05T15:22:18.307Z,65.80
2018-06-05T15:24:46.921Z,67.90
2018-06-05T15:27:15.331Z,69.50
2018-06-05T15:29:43.757Z,66.90
2018-06-05T15:32:12.457Z,67.10
2018-06-05T15:34:41.147Z,65.60
2018-06-05T15:37:09.589Z,62.60
2018-06-05T15:39:38.130Z,64.40
2018-06-05T15:42:06.547Z,65.90
2018-06-05T15:44:34.932Z,66.30
2018-06-05T15:47:03.348Z,67.70
2018-06-05T15:49:31.788Z,69.70
2018-06-05T15:52:01.618Z,68.00
2018-06-05T15:54:30.128Z,65.90
2018-06-05T15:56:58.591Z,64.90
2018-06-05T15:59:29.536Z,66.00
2018-06-05T16:01:58.768Z,64.10
2018-06-05T16:04:29.103Z,65.50
2018-06-05T16:06:58.219Z,65.50
2018-06-05T16:09:26.639Z,65.70
2018-06-05T16:11:55.164Z,67.70
2018-06-05T16:14:24.137Z,67.10
2018-06-05T16:16:52.548Z,67.40
2018-06-05T16:19:20.998Z,66.80
2018-06-05T16:21:49.631Z,68.10
2018-06-05T16:24:18.142Z,66.70
2018-06-05T16:26:46.647Z,67.60
2018-06-05T16:29:15.028Z,67.00
2018-06-05T16:31:43.406Z,66.60
2018-06-05T16:34:11.847Z,69.30
2018-06-05T16:36:40.288Z,68.90
2018-06-05T16:39:08.908Z,67.70
2018-06-05T16:41:37.278Z,66.00
2018-06-05T16:44:05.787Z,68.10
2018-06-05T16:46:34.207Z,68.50
2018-06-05T16:49:02.603Z,67.50
2018-06-05T16:51:31.024Z,68.30
2018-06-05T16:53:59.458Z,69.50
2018-06-05T16:56:27.838Z,69.00
2018-06-05T16:58:56.355Z,70.60
2018-06-05T17:01:24.886Z,73.40
2018-06-05T17:06:21.451Z,75.70
2018-06-05T17:08:49.805Z,75.00
2018-06-05T17:11:18.245Z,77.00
2018-06-05T17:13:46.670Z,76.70
2018-06-05T17:16:15.053Z,74.30
2018-06-05T17:18:44.265Z,75.50
2018-06-05T17:21:12.631Z,75.30
2018-06-05T17:23:41.027Z,76.00
2018-06-05T17:26:09.474Z,79.20
2018-06-05T17:28:37.841Z,79.60
2018-06-05T17:31:06.225Z,81.60
2018-06-05T17:33:34.640Z,82.90
2018-06-05T17:36:04.040Z,82.50
2018-06-05T17:38:32.494Z,82.00
2018-06-05T17:41:01.894Z,84.30
2018-06-05T17:43:30.293Z,85.10
2018-06-05T17:45:58.731Z,85.20
2018-06-05T17:48:27.152Z,86.10
2018-06-05T17:50:55.577Z,85.10
2018-06-05T17:53:24.601Z,86.30
2018-06-05T17:55:53.021Z,87.30
2018-06-05T17:58:21.519Z,87.20
2018-06-05T18:00:50.003Z,88.10
2018-06-05T18:03:18.442Z,87.70
2018-06-05T18:05:46.979Z,88.50
2018-06-05T18:08:15.352Z,89.40
2018-06-05T18:10:44.510Z,89.40
2018-06-05T18:13:12.935Z,90.10
2018-06-05T18:15:41.350Z,90.40
2018-06-05T18:18:09.924Z,90.20
2018-06-05T18:20:39.280Z,90.80
2018-06-05T18:23:07.747Z,91.00
2018-06-05T18:25:36.289Z,91.20
2018-06-05T18:28:04.676Z,91.60
2018-06-05T18:30:33.081Z,92.30
2018-06-05T18:33:01.461Z,92.10
2018-06-05T18:35:29.809Z,92.50
2018-06-05T18:37:58.237Z,92.80
2018-06-05T18:40:26.706Z,93.20
2018-06-05T18:42:55.179Z,93.30
2018-06-05T18:45:23.590Z,93.80
2018-06-05T18:47:51.977Z,93.90
2018-06-05T18:50:20.373Z,94.20
2018-06-05T18:55:16.902Z,94.50
2018-06-05T18:57:47.331Z,94.60
2018-06-05T19:00:16.126Z,94.80
2018-06-05T19:02:44.555Z,95.00
2018-06-05T19:05:12.968Z,95.50
2018-06-05T19:07:41.381Z,95.40
2018-06-05T19:10:09.770Z,95.60
2018-06-05T19:12:38.181Z,96.00
2018-06-05T19:15:06.601Z,96.10
2018-06-05T19:17:35.001Z,96.30
2018-06-05T19:20:03.436Z,96.60
2018-06-05T19:22:31.877Z,96.80
2018-06-05T19:25:00.292Z,97.00
2018-06-05T19:27:28.684Z,97.20
2018-06-05T19:29:57.261Z,97.40
2018-06-05T19:32:25.652Z,97.80
2018-06-05T19:34:54.080Z,98.10
2018-06-05T19:37:22.456Z,98.30
2018-06-05T19:39:51.150Z,98.30
2018-06-05T19:42:19.559Z,98.60
2018-06-05T19:44:47.950Z,98.90
2018-06-05T19:47:16.395Z,99.20
2018-06-05T19:49:44.814Z,99.20
2018-06-05T19:52:13.590Z,99.40
2018-06-05T19:54:42.018Z,99.60
2018-06-05T19:57:10.394Z,99.80
2018-06-05T19:59:38.809Z,99.90
2018-06-05T20:02:07.343Z,99.90
2018-06-05T20:07:03.962Z,99.90
2018-06-05T20:09:32.361Z,99.90
2018-06-05T20:12:00.718Z,99.90
2018-06-05T20:14:29.191Z,99.90
2018-06-05T20:16:57.680Z,99.90
2018-06-05T20:19:26.117Z,99.90
2018-06-05T20:21:54.484Z,99.90
2018-06-05T20:24:23.167Z,99.90
2018-06-05T20:26:51.580Z,99.90
2018-06-05T20:29:20.004Z,99.90
2018-06-05T20:31:48.357Z,99.90
2018-06-05T20:34:16.742Z,99.90
2018-06-05T20:36:45.118Z,99.90
2018-06-05T20:39:13.475Z,99.90
2018-06-05T20:41:41.896Z,99.90
2018-06-05T20:44:10.268Z,99.90
2018-06-05T20:46:39.501Z,99.90
2018-06-05T20:49:07.910Z,99.90
2018-06-05T20:51:36.306Z,99.90
2018-06-05T20:54:04.692Z,99.90
2018-06-05T20:56:33.425Z,99.90
2018-06-05T20:59:01.817Z,99.90
2018-06-05T21:01:30.190Z,99.90
2018-06-05T21:03:59.984Z,99.90
2018-06-05T21:06:28.345Z,99.90
2018-06-05T21:08:56.683Z,99.90
2018-06-05T21:11:25.072Z,99.90
2018-06-05T21:13:53.539Z,99.90
2018-06-05T21:16:21.884Z,99.90
2018-06-05T21:18:50.298Z,99.90
2018-06-05T21:21:18.646Z,99.90
2018-06-05T21:23:47.010Z,99.90
2018-06-05T21:26:15.364Z,99.90
2018-06-05T21:28:43.695Z,99.90
2018-06-05T21:31:12.091Z,99.90
2018-06-05T21:33:40.447Z,99.90
2018-06-05T21:36:08.829Z,99.90
2018-06-05T21:38:37.887Z,99.90
2018-06-05T21:41:06.247Z,99.90
2018-06-05T21:43:34.620Z,99.90
2018-06-05T21:46:02.925Z,99.90
2018-06-05T21:48:31.374Z,99.90
2018-06-05T21:51:00.635Z,99.90
2018-06-05T21:53:29.002Z,99.90
2018-06-05T21:55:57.468Z,99.90
2018-06-05T21:58:25.966Z,99.90
2018-06-05T22:00:54.388Z,99.90
2018-06-05T22:03:22.790Z,99.90
2018-06-05T22:05:51.235Z,99.90
2018-06-05T22:08:19.828Z,99.90
2018-06-05T22:10:54.262Z,99.90
2018-06-05T22:13:22.904Z,99.90
2018-06-05T22:15:51.327Z,99.90
2018-06-05T22:18:19.715Z,99.90
2018-06-05T22:20:48.092Z,99.90
2018-06-05T22:23:16.469Z,99.90
2018-06-05T22:25:44.851Z,99.90
2018-06-05T22:28:13.183Z,99.90
2018-06-05T22:30:42.121Z,99.90
2018-06-05T22:33:10.580Z,99.90
2018-06-05T22:35:38.902Z,99.90
2018-06-05T22:38:07.251Z,99.90
2018-06-05T22:40:35.607Z,99.90
2018-06-05T22:43:04.004Z,99.90
2018-06-05T22:45:32.412Z,99.90
2018-06-05T22:48:02.063Z,99.90
2018-06-05T22:50:30.497Z,99.90
2018-06-05T22:52:58.834Z,99.90
2018-06-05T22:55:27.211Z,99.90
2018-06-05T22:57:55.613Z,99.90
2018-06-05T23:00:31.553Z,99.90
2018-06-05T23:02:59.932Z,99.90
2018-06-05T23:05:28.376Z,99.90
2018-06-05T23:07:56.752Z,99.90
2018-06-05T23:10:25.189Z,99.90
2018-06-05T23:12:53.552Z,99.90
2018-06-05T23:15:21.892Z,99.90
2018-06-05T23:17:50.897Z,99.90
2018-06-05T23:20:19.202Z,99.90
2018-06-05T23:22:47.582Z,99.90
2018-06-05T23:25:15.916Z,99.90
2018-06-05T23:27:44.274Z,99.90
2018-06-05T23:30:12.666Z,99.90
2018-06-05T23:32:41.002Z,99.90
2018-06-05T23:35:09.376Z,99.90
2018-06-05T23:37:37.704Z,99.90
2018-06-05T23:40:06.078Z,99.90
2018-06-05T23:42:34.429Z,99.90
2018-06-05T23:45:02.780Z,99.90
2018-06-05T23:47:31.137Z,99.90
2018-06-05T23:49:59.467Z,99.90
2018-06-05T23:52:28.389Z,99.90
2018-06-05T23:54:56.756Z,99.90
2018-06-05T23:57:25.117Z,99.90
2018-06-05T23:59:53.516Z,99.90
